createdAt,value
2018-05-27T00:00:40.947Z,45.20
2018-05-27T00:03:08.394Z,45.30
2018-05-27T00:05:35.855Z,45.30
2018-05-27T00:08:03.295Z,45.30
2018-05-27T00:10:30.746Z,45.30
2018-05-27T00:12:58.202Z,45.30
2018-05-27T00:15:25.679Z,45.30
2018-05-27T00:17:53.129Z,45.30
2018-05-27T00:20:20.586Z,45.30
2018-05-27T00:22:48.031Z,45.30
2018-05-27T00:25:15.512Z,45.30
2018-05-27T00:27:42.960Z,45.30
2018-05-27T00:30:10.518Z,45.30
2018-05-27T00:32:37.965Z,45.30
2018-05-27T00:35:05.415Z,45.30
2018-05-27T00:37:32.858Z,45.30
2018-05-27T00:40:00.339Z,45.30
2018-05-27T00:42:27.974Z,45.30
2018-05-27T00:44:55.452Z,45.30
2018-05-27T00:47:22.920Z,45.30
2018-05-27T00:49:50.403Z,45.30
2018-05-27T00:52:17.820Z,45.30
2018-05-27T00:54:45.399Z,45.30
2018-05-27T00:57:12.859Z,45.30
2018-05-27T00:59:40.313Z,45.30
2018-05-27T01:02:08.124Z,45.90
2018-05-27T01:04:35.631Z,45.30
2018-05-27T01:07:04.607Z,45.30
2018-05-27T01:09:32.059Z,45.30
2018-05-27T01:11:59.623Z,45.30
2018-05-27T01:14:27.347Z,45.30
2018-05-27T01:16:54.847Z,45.30
2018-05-27T01:19:22.307Z,45.40
2018-05-27T01:21:49.855Z,45.40
2018-05-27T01:24:17.410Z,45.30
2018-05-27T01:26:44.869Z,45.40
2018-05-27T01:29:12.327Z,45.10
2018-05-27T01:31:39.786Z,45.50
2018-05-27T01:34:07.339Z,46.00
2018-05-27T01:36:34.806Z,46.20
2018-05-27T01:39:03.759Z,46.90
2018-05-27T01:41:31.247Z,46.90
2018-05-27T01:43:58.702Z,46.70
2018-05-27T01:46:26.146Z,46.80
2018-05-27T01:48:53.606Z,46.60
2018-05-27T01:51:21.061Z,46.50
2018-05-27T01:53:48.521Z,46.40
2018-05-27T01:56:16.076Z,46.90
2018-05-27T01:58:43.519Z,47.10
2018-05-27T02:01:10.987Z,47.30
2018-05-27T02:03:38.927Z,47.80
2018-05-27T02:06:06.412Z,48.00
2018-05-27T02:08:33.991Z,48.00
2018-05-27T02:11:02.965Z,48.50
2018-05-27T02:13:30.420Z,48.40
2018-05-27T02:15:57.983Z,48.70
2018-05-27T02:18:25.543Z,48.60
2018-05-27T02:20:53.098Z,48.70
2018-05-27T02:23:20.556Z,49.10
2018-05-27T02:25:48.011Z,49.00
2018-05-27T02:28:15.454Z,48.80
2018-05-27T02:30:43.027Z,48.40
2018-05-27T02:33:10.583Z,48.40
2018-05-27T02:35:38.143Z,48.40
2018-05-27T02:38:05.587Z,48.40
2018-05-27T02:40:33.146Z,48.30
2018-05-27T02:43:00.880Z,48.20
2018-05-27T02:45:28.360Z,48.40
2018-05-27T02:47:55.827Z,48.80
2018-05-27T02:50:23.296Z,48.80
2018-05-27T02:52:50.751Z,48.80
2018-05-27T02:55:18.301Z,49.00
2018-05-27T02:57:45.856Z,49.00
2018-05-27T03:00:13.311Z,48.80
2018-05-27T03:02:40.871Z,49.00
2018-05-27T03:05:08.431Z,49.20
2018-05-27T03:07:35.992Z,49.30
2018-05-27T03:10:03.452Z,49.50
2018-05-27T03:12:30.998Z,49.60
2018-05-27T03:14:58.452Z,49.60
2018-05-27T03:17:25.906Z,49.50
2018-05-27T03:19:53.362Z,49.80
2018-05-27T03:22:20.827Z,50.20
2018-05-27T03:24:48.393Z,50.10
2018-05-27T03:27:15.861Z,49.90
2018-05-27T03:29:43.391Z,50.00
2018-05-27T03:32:10.959Z,50.90
2018-05-27T03:34:38.416Z,50.80
2018-05-27T03:37:05.967Z,50.90
2018-05-27T03:39:33.587Z,50.60
2018-05-27T03:42:01.093Z,51.10
2018-05-27T03:44:28.533Z,51.00
2018-05-27T03:46:56.097Z,51.30
2018-05-27T03:49:23.547Z,51.10
2018-05-27T03:51:51.043Z,50.40
2018-05-27T03:54:18.492Z,50.50
2018-05-27T03:56:45.955Z,50.80
2018-05-27T03:59:14.176Z,51.20
2018-05-27T04:01:41.658Z,51.20
2018-05-27T04:04:21.085Z,51.40
2018-05-27T04:07:00.477Z,51.10
2018-05-27T04:09:29.623Z,51.60
2018-05-27T04:11:57.179Z,51.60
2018-05-27T04:14:24.630Z,51.40
2018-05-27T04:16:52.094Z,51.60
2018-05-27T04:19:19.539Z,51.70
2018-05-27T04:21:47.103Z,52.30
2018-05-27T04:24:14.551Z,52.20
2018-05-27T04:26:42.007Z,52.50
2018-05-27T04:29:09.472Z,52.70
2018-05-27T04:31:36.922Z,52.80
2018-05-27T04:34:04.371Z,52.40
2018-05-27T04:36:31.877Z,52.30
2018-05-27T04:38:59.298Z,52.60
2018-05-27T04:41:26.860Z,52.70
2018-05-27T04:43:54.307Z,53.00
2018-05-27T04:46:21.759Z,52.60
2018-05-27T04:48:49.211Z,52.20
2018-05-27T04:51:16.667Z,51.90
2018-05-27T04:53:44.122Z,51.70
2018-05-27T04:56:11.592Z,51.80
2018-05-27T04:58:39.143Z,52.60
2018-05-27T05:01:06.607Z,52.10
2018-05-27T05:03:34.172Z,52.50
2018-05-27T05:06:01.725Z,52.40
2018-05-27T05:08:29.175Z,52.10
2018-05-27T05:10:56.640Z,52.30
2018-05-27T05:13:24.096Z,52.50
2018-05-27T05:15:51.542Z,52.50
2018-05-27T05:18:18.995Z,52.50
2018-05-27T05:20:46.445Z,52.50
2018-05-27T05:23:14.115Z,52.10
2018-05-27T05:25:41.568Z,51.60
2018-05-27T05:28:09.029Z,51.60
2018-05-27T05:30:36.496Z,51.60
2018-05-27T05:33:03.946Z,51.50
2018-05-27T05:35:31.396Z,51.30
2018-05-27T05:37:58.867Z,50.90
2018-05-27T05:40:26.304Z,50.50
2018-05-27T05:42:53.755Z,50.20
2018-05-27T05:45:21.207Z,49.90
2018-05-27T05:47:48.997Z,49.70
2018-05-27T05:50:16.443Z,49.50
2018-05-27T05:52:43.903Z,49.60
2018-05-27T05:55:11.475Z,50.00
2018-05-27T05:57:39.016Z,50.20
2018-05-27T06:00:06.571Z,50.00
2018-05-27T06:02:34.139Z,49.90
2018-05-27T06:05:01.583Z,49.70
2018-05-27T06:07:29.035Z,49.40
2018-05-27T06:09:56.483Z,49.20
2018-05-27T06:12:23.962Z,49.20
2018-05-27T06:14:51.520Z,49.00
2018-05-27T06:17:19.069Z,48.90
2018-05-27T06:19:46.522Z,48.90
2018-05-27T06:22:13.979Z,48.80
2018-05-27T06:24:41.427Z,48.70
2018-05-27T06:27:08.883Z,49.30
2018-05-27T06:29:36.336Z,48.60
2018-05-27T06:32:03.941Z,48.60
2018-05-27T06:34:31.390Z,48.50
2018-05-27T06:36:58.822Z,48.50
2018-05-27T06:39:26.379Z,48.50
2018-05-27T06:41:53.827Z,48.50
2018-05-27T06:44:21.397Z,48.50
2018-05-27T06:46:48.852Z,48.50
2018-05-27T06:49:16.681Z,48.40
2018-05-27T06:51:44.136Z,48.40
2018-05-27T06:54:11.594Z,48.40
2018-05-27T06:56:39.187Z,48.40
2018-05-27T06:59:06.634Z,48.40
2018-05-27T07:01:34.173Z,48.30
2018-05-27T07:04:01.664Z,48.30
2018-05-27T07:06:29.936Z,48.20
2018-05-27T07:08:57.396Z,48.30
2018-05-27T07:11:24.844Z,48.20
2018-05-27T07:13:52.308Z,48.20
2018-05-27T07:16:19.764Z,48.30
2018-05-27T07:18:47.219Z,48.30
2018-05-27T07:21:14.669Z,48.20
2018-05-27T07:23:42.980Z,48.80
2018-05-27T07:26:11.191Z,48.10
2018-05-27T07:28:38.650Z,48.10
2018-05-27T07:31:06.108Z,48.10
2018-05-27T07:33:33.588Z,48.00
2018-05-27T07:36:01.032Z,48.00
2018-05-27T07:38:28.504Z,48.00
2018-05-27T07:40:56.052Z,48.20
2018-05-27T07:43:23.503Z,49.20
2018-05-27T07:45:51.371Z,49.20
2018-05-27T07:48:18.836Z,49.80
2018-05-27T07:50:46.291Z,51.30
2018-05-27T07:53:13.851Z,51.80
2018-05-27T07:55:41.404Z,51.10
2018-05-27T07:58:08.867Z,50.20
2018-05-27T08:00:36.420Z,49.50
2018-05-27T08:03:03.883Z,49.00
2018-05-27T08:05:31.328Z,48.80
2018-05-27T08:07:58.791Z,48.80
2018-05-27T08:10:26.249Z,48.80
2018-05-27T08:12:53.695Z,49.20
2018-05-27T08:15:21.263Z,49.50
2018-05-27T08:17:48.724Z,48.60
2018-05-27T08:20:16.284Z,48.60
2018-05-27T08:22:43.815Z,48.60
2018-05-27T08:25:11.287Z,48.40
2018-05-27T08:27:38.737Z,48.50
2018-05-27T08:30:06.310Z,48.50
2018-05-27T08:32:33.859Z,48.70
2018-05-27T08:35:01.731Z,50.70
2018-05-27T08:37:29.135Z,51.20
2018-05-27T08:39:56.593Z,50.60
2018-05-27T08:42:24.050Z,50.10
2018-05-27T08:44:51.504Z,51.40
2018-05-27T08:47:19.004Z,49.50
2018-05-27T08:49:46.467Z,49.80
2018-05-27T08:52:14.018Z,49.40
2018-05-27T08:54:41.962Z,49.20
2018-05-27T08:57:09.438Z,49.20
2018-05-27T08:59:36.895Z,49.10
2018-05-27T09:02:04.347Z,49.10
2018-05-27T09:04:31.826Z,49.10
2018-05-27T09:06:59.281Z,49.00
2018-05-27T09:09:26.820Z,48.90
2018-05-27T09:11:54.380Z,48.90
2018-05-27T09:14:21.843Z,48.90
2018-05-27T09:16:49.396Z,48.90
2018-05-27T09:19:16.959Z,48.90
2018-05-27T09:21:44.406Z,48.90
2018-05-27T09:24:11.863Z,48.70
2018-05-27T09:26:39.315Z,48.70
2018-05-27T09:29:06.772Z,48.70
2018-05-27T09:31:34.335Z,48.60
2018-05-27T09:34:01.887Z,48.70
2018-05-27T09:36:29.343Z,48.70
2018-05-27T09:38:56.911Z,48.70
2018-05-27T09:41:24.383Z,48.70
2018-05-27T09:43:51.827Z,48.70
2018-05-27T09:46:19.278Z,48.70
2018-05-27T09:48:46.744Z,48.70
2018-05-27T09:51:14.291Z,48.80
2018-05-27T09:53:43.452Z,48.70
2018-05-27T09:56:10.935Z,48.70
2018-05-27T09:58:38.383Z,48.90
2018-05-27T10:01:05.846Z,48.70
2018-05-27T10:03:33.299Z,48.70
2018-05-27T10:06:00.860Z,50.20
2018-05-27T10:08:28.316Z,51.40
2018-05-27T10:10:56.183Z,50.10
2018-05-27T10:13:23.639Z,51.80
2018-05-27T10:15:51.199Z,51.30
2018-05-27T10:18:18.663Z,51.00
2018-05-27T10:20:46.290Z,52.20
2018-05-27T10:23:13.775Z,51.00
2018-05-27T10:25:41.327Z,50.40
2018-05-27T10:28:09.060Z,51.20
2018-05-27T10:30:36.548Z,52.00
2018-05-27T10:33:04.004Z,51.90
2018-05-27T10:35:31.457Z,52.20
2018-05-27T10:37:58.927Z,52.10
2018-05-27T10:40:26.379Z,50.70
2018-05-27T10:42:53.827Z,50.00
2018-05-27T10:45:21.292Z,49.70
2018-05-27T10:47:48.744Z,49.60
2018-05-27T10:50:16.211Z,49.50
2018-05-27T10:52:43.660Z,51.10
2018-05-27T10:55:11.134Z,51.10
2018-05-27T10:57:38.677Z,53.20
2018-05-27T11:00:06.130Z,51.50
2018-05-27T11:02:33.675Z,51.30
2018-05-27T11:05:01.241Z,51.00
2018-05-27T11:07:28.695Z,50.90
2018-05-27T11:09:56.151Z,50.80
2018-05-27T11:12:23.606Z,49.30
2018-05-27T11:14:51.056Z,48.80
2018-05-27T11:17:18.525Z,49.00
2018-05-27T11:19:46.074Z,49.00
2018-05-27T11:22:13.808Z,48.50
2018-05-27T11:24:41.301Z,48.50
2018-05-27T11:27:08.859Z,48.20
2018-05-27T11:29:36.311Z,48.40
2018-05-27T11:32:03.872Z,48.30
2018-05-27T11:34:31.393Z,47.80
2018-05-27T11:36:58.896Z,47.20
2018-05-27T11:39:26.956Z,46.50
2018-05-27T11:41:54.512Z,46.80
2018-05-27T11:44:21.954Z,46.50
2018-05-27T11:46:50.035Z,46.30
2018-05-27T11:49:17.497Z,46.40
2018-05-27T11:51:44.956Z,46.40
2018-05-27T11:54:12.512Z,46.40
2018-05-27T11:56:40.068Z,46.50
2018-05-27T11:59:07.619Z,47.20
2018-05-27T12:01:35.184Z,46.70
2018-05-27T12:04:02.735Z,46.70
2018-05-27T12:06:30.192Z,46.70
2018-05-27T12:08:57.658Z,46.90
2018-05-27T12:11:25.298Z,47.00
2018-05-27T12:13:52.751Z,47.20
2018-05-27T12:16:20.215Z,47.30
2018-05-27T12:18:47.671Z,47.40
2018-05-27T12:21:15.128Z,47.30
2018-05-27T12:23:42.591Z,47.40
2018-05-27T12:26:10.046Z,47.30
2018-05-27T12:28:37.507Z,47.40
2018-05-27T12:31:04.968Z,47.40
2018-05-27T12:33:33.054Z,47.40
2018-05-27T12:36:00.583Z,47.40
2018-05-27T12:38:28.035Z,47.50
2018-05-27T12:40:55.491Z,47.50
2018-05-27T12:43:22.944Z,47.60
2018-05-27T12:45:50.506Z,47.60
2018-05-27T12:48:17.971Z,47.60
2018-05-27T12:50:45.423Z,47.70
2018-05-27T12:53:12.884Z,47.70
2018-05-27T12:55:40.340Z,47.80
2018-05-27T12:58:07.791Z,47.80
2018-05-27T13:00:35.247Z,47.80
2018-05-27T13:03:02.695Z,47.80
2018-05-27T13:05:30.167Z,47.80
2018-05-27T13:07:58.435Z,47.80
2018-05-27T13:10:25.900Z,47.90
2018-05-27T13:12:53.360Z,47.90
2018-05-27T13:15:21.625Z,47.90
2018-05-27T13:17:49.454Z,47.90
2018-05-27T13:20:16.949Z,48.00
2018-05-27T13:22:44.513Z,47.90
2018-05-27T13:25:12.231Z,48.00
2018-05-27T13:27:39.687Z,48.00
2018-05-27T13:30:07.226Z,48.00
2018-05-27T13:32:34.731Z,48.00
2018-05-27T13:35:02.186Z,48.00
2018-05-27T13:37:29.657Z,48.00
2018-05-27T13:39:57.216Z,48.00
2018-05-27T13:42:24.671Z,48.00
2018-05-27T13:44:52.131Z,48.00
2018-05-27T13:47:19.589Z,48.00
2018-05-27T13:49:47.038Z,48.00
2018-05-27T13:52:14.593Z,48.00
2018-05-27T13:54:42.040Z,48.00
2018-05-27T13:57:09.499Z,48.60
2018-05-27T13:59:36.942Z,48.00
2018-05-27T14:02:04.411Z,48.00
2018-05-27T14:04:31.967Z,48.10
2018-05-27T14:06:59.531Z,48.10
2018-05-27T14:09:26.991Z,48.10
2018-05-27T14:11:54.445Z,48.10
2018-05-27T14:14:21.891Z,48.10
2018-05-27T14:16:49.355Z,48.10
2018-05-27T14:19:16.800Z,48.10
2018-05-27T14:21:44.268Z,48.10
2018-05-27T14:24:11.859Z,48.10
2018-05-27T14:26:40.796Z,48.20
2018-05-27T14:29:08.263Z,48.20
2018-05-27T14:31:35.823Z,48.20
2018-05-27T14:34:03.267Z,48.30
2018-05-27T14:36:30.732Z,48.50
2018-05-27T14:38:58.181Z,48.50
2018-05-27T14:41:25.647Z,48.50
2018-05-27T14:43:53.110Z,48.50
2018-05-27T14:46:20.676Z,48.50
2018-05-27T14:48:48.229Z,48.50
2018-05-27T14:51:15.679Z,48.50
2018-05-27T14:53:43.231Z,48.50
2018-05-27T14:56:10.684Z,48.70
2018-05-27T14:58:38.139Z,48.70
2018-05-27T15:01:05.603Z,48.70
2018-05-27T15:03:33.159Z,48.70
2018-05-27T15:06:00.629Z,48.80
2018-05-27T15:08:28.089Z,48.80
2018-05-27T15:10:55.637Z,48.80
2018-05-27T15:13:23.324Z,49.00
2018-05-27T15:15:51.564Z,49.00
2018-05-27T15:18:19.020Z,49.00
2018-05-27T15:20:46.479Z,49.00
2018-05-27T15:23:14.308Z,49.10
2018-05-27T15:25:41.763Z,49.20
2018-05-27T15:28:09.259Z,49.30
2018-05-27T15:30:36.823Z,49.60
2018-05-27T15:33:04.272Z,49.60
2018-05-27T15:35:31.827Z,49.50
2018-05-27T15:37:59.287Z,49.40
2018-05-27T15:40:26.735Z,49.30
2018-05-27T15:42:54.305Z,49.30
2018-05-27T15:45:21.863Z,49.20
2018-05-27T15:47:49.418Z,49.20
2018-05-27T15:50:16.859Z,49.20
2018-05-27T15:52:44.394Z,49.10
2018-05-27T15:55:11.879Z,49.00
2018-05-27T15:57:39.343Z,49.00
2018-05-27T16:00:06.787Z,49.00
2018-05-27T16:02:34.244Z,48.90
2018-05-27T16:05:01.699Z,48.90
2018-05-27T16:07:29.139Z,49.00
2018-05-27T16:09:56.588Z,49.00
2018-05-27T16:12:24.039Z,49.00
2018-05-27T16:14:51.491Z,49.00
2018-05-27T16:17:18.939Z,49.00
2018-05-27T16:19:46.383Z,49.10
2018-05-27T16:22:14.607Z,49.10
2018-05-27T16:24:42.050Z,49.10
2018-05-27T16:27:09.507Z,49.10
2018-05-27T16:29:36.956Z,49.10
2018-05-27T16:32:04.441Z,49.20
2018-05-27T16:34:31.999Z,49.20
2018-05-27T16:36:59.835Z,49.20
2018-05-27T16:39:27.293Z,49.20
2018-05-27T16:41:54.739Z,49.20
2018-05-27T16:44:22.223Z,49.30
2018-05-27T16:46:49.685Z,49.70
2018-05-27T16:49:17.140Z,50.60
2018-05-27T16:51:44.691Z,50.90
2018-05-27T16:54:12.151Z,51.90
2018-05-27T16:56:39.843Z,52.80
2018-05-27T16:59:08.096Z,55.00
2018-05-27T17:01:35.821Z,55.00
2018-05-27T17:04:03.274Z,54.30
2018-05-27T17:06:30.727Z,55.20
2018-05-27T17:08:58.180Z,54.50
2018-05-27T17:11:25.682Z,56.90
2018-05-27T17:13:53.135Z,57.10
2018-05-27T17:16:20.584Z,57.00
2018-05-27T17:18:48.151Z,56.20
2018-05-27T17:21:15.600Z,54.30
2018-05-27T17:23:43.154Z,54.10
2018-05-27T17:26:10.612Z,53.40
2018-05-27T17:28:38.064Z,53.40
2018-05-27T17:31:05.522Z,53.10
2018-05-27T17:33:32.971Z,52.90
2018-05-27T17:36:00.458Z,52.50
2018-05-27T17:38:27.891Z,54.00
2018-05-27T17:40:55.347Z,53.60
2018-05-27T17:43:22.903Z,52.70
2018-05-27T17:45:50.347Z,51.70
2018-05-27T17:48:17.811Z,51.20
2018-05-27T17:50:45.281Z,52.10
2018-05-27T17:53:12.830Z,51.30
2018-05-27T17:55:40.288Z,54.40
2018-05-27T17:58:07.732Z,52.60
2018-05-27T18:00:35.188Z,51.70
2018-05-27T18:03:02.656Z,51.40
2018-05-27T18:05:30.115Z,51.10
2018-05-27T18:07:57.651Z,51.00
2018-05-27T18:10:25.156Z,50.80
2018-05-27T18:12:52.689Z,50.60
2018-05-27T18:15:20.136Z,50.40
2018-05-27T18:17:47.591Z,50.50
2018-05-27T18:20:15.049Z,50.80
2018-05-27T18:22:42.511Z,51.00
2018-05-27T18:25:09.967Z,51.80
2018-05-27T18:27:37.421Z,51.20
2018-05-27T18:30:04.879Z,51.40
2018-05-27T18:32:32.327Z,51.10
2018-05-27T18:34:59.776Z,51.00
2018-05-27T18:37:27.214Z,51.10
2018-05-27T18:39:54.673Z,51.30
2018-05-27T18:42:22.115Z,51.30
2018-05-27T18:44:49.621Z,51.30
2018-05-27T18:47:17.167Z,51.70
2018-05-27T18:49:44.627Z,51.30
2018-05-27T18:52:12.081Z,51.00
2018-05-27T18:54:39.541Z,51.00
2018-05-27T18:57:06.984Z,51.00
2018-05-27T18:59:34.481Z,50.90
2018-05-27T19:02:01.891Z,51.10
2018-05-27T19:04:29.351Z,50.90
2018-05-27T19:06:56.798Z,50.90
2018-05-27T19:09:24.274Z,50.70
2018-05-27T19:11:51.723Z,50.70
2018-05-27T19:14:19.175Z,50.70
2018-05-27T19:16:46.636Z,50.70
2018-05-27T19:19:14.091Z,50.60
2018-05-27T19:21:41.539Z,50.60
2018-05-27T19:24:09.203Z,50.70
2018-05-27T19:26:36.651Z,50.60
2018-05-27T19:29:04.112Z,50.60
2018-05-27T19:31:31.567Z,50.60
2018-05-27T19:33:59.046Z,50.60
2018-05-27T19:36:26.496Z,50.60
2018-05-27T19:38:54.055Z,50.60
2018-05-27T19:41:21.495Z,50.70
2018-05-27T19:43:48.946Z,50.30
2018-05-27T19:46:16.415Z,50.40
2018-05-27T19:48:43.987Z,50.40
2018-05-27T19:51:11.445Z,51.00
2018-05-27T19:53:39.777Z,50.30
2018-05-27T19:56:07.398Z,50.40
2018-05-27T19:58:34.848Z,50.90
2018-05-27T20:01:02.295Z,50.30
2018-05-27T20:03:29.830Z,50.30
2018-05-27T20:05:57.277Z,50.20
2018-05-27T20:08:24.743Z,50.30
2018-05-27T20:10:52.200Z,50.30
2018-05-27T20:13:19.643Z,50.30
2018-05-27T20:15:47.185Z,50.30
2018-05-27T20:18:14.619Z,50.50
2018-05-27T20:20:42.127Z,51.10
2018-05-27T20:23:09.575Z,50.60
2018-05-27T20:25:37.031Z,50.70
2018-05-27T20:28:04.486Z,50.70
2018-05-27T20:30:31.955Z,50.60
2018-05-27T20:32:59.411Z,50.60
2018-05-27T20:35:26.986Z,50.50
2018-05-27T20:37:54.435Z,50.40
2018-05-27T20:40:21.892Z,50.40
2018-05-27T20:42:49.443Z,50.20
2018-05-27T20:45:17.068Z,50.20
2018-05-27T20:47:44.507Z,50.20
2018-05-27T20:50:11.958Z,50.10
2018-05-27T20:52:39.407Z,50.10
2018-05-27T20:55:06.927Z,50.00
2018-05-27T20:57:34.371Z,50.00
2018-05-27T21:00:01.964Z,50.00
2018-05-27T21:02:29.411Z,50.00
2018-05-27T21:04:56.970Z,50.00
2018-05-27T21:07:24.509Z,50.10
2018-05-27T21:09:51.964Z,49.90
2018-05-27T21:12:19.427Z,49.80
2018-05-27T21:14:46.975Z,49.80
2018-05-27T21:17:14.426Z,49.80
2018-05-27T21:19:41.887Z,49.80
2018-05-27T21:22:09.330Z,49.70
2018-05-27T21:24:36.809Z,49.80
2018-05-27T21:27:04.337Z,49.70
2018-05-27T21:29:31.819Z,49.70
2018-05-27T21:31:59.271Z,49.80
2018-05-27T21:34:26.832Z,49.70
2018-05-27T21:36:54.398Z,49.70
2018-05-27T21:39:21.951Z,49.70
2018-05-27T21:41:49.406Z,49.60
2018-05-27T21:44:16.846Z,49.70
2018-05-27T21:46:44.419Z,49.50
2018-05-27T21:49:11.870Z,49.50
2018-05-27T21:51:39.446Z,49.70
2018-05-27T21:54:06.980Z,49.60
2018-05-27T21:56:34.551Z,49.60
2018-05-27T21:59:02.071Z,49.60
2018-05-27T22:01:29.513Z,49.60
2018-05-27T22:03:57.163Z,49.60
2018-05-27T22:06:24.947Z,49.50
2018-05-27T22:08:52.507Z,49.50
2018-05-27T22:11:20.001Z,49.50
2018-05-27T22:13:47.827Z,49.50
2018-05-27T22:16:15.283Z,49.50
2018-05-27T22:18:42.739Z,49.40
2018-05-27T22:21:10.202Z,49.40
2018-05-27T22:23:37.685Z,49.40
2018-05-27T22:26:05.247Z,49.40
2018-05-27T22:28:32.694Z,49.50
2018-05-27T22:31:00.255Z,49.40
2018-05-27T22:33:27.704Z,49.40
2018-05-27T22:35:55.156Z,49.40
2018-05-27T22:38:22.603Z,49.40
2018-05-27T22:40:50.080Z,49.40
2018-05-27T22:43:17.544Z,49.40
2018-05-27T22:45:45.004Z,49.40
2018-05-27T22:48:12.550Z,49.40
2018-05-27T22:50:40.000Z,49.40
2018-05-27T22:53:07.456Z,49.30
2018-05-27T22:55:34.919Z,49.30
2018-05-27T22:58:02.472Z,49.30
2018-05-27T23:00:30.216Z,49.30
2018-05-27T23:02:57.687Z,49.30
2018-05-27T23:05:25.151Z,49.30
2018-05-27T23:07:52.720Z,49.30
2018-05-27T23:10:20.272Z,49.30
2018-05-27T23:12:47.822Z,49.20
2018-05-27T23:15:15.279Z,49.20
2018-05-27T23:17:42.839Z,49.20
2018-05-27T23:20:10.291Z,49.20
2018-05-27T23:22:37.747Z,49.20
2018-05-27T23:25:05.214Z,49.20
2018-05-27T23:27:32.767Z,49.20
2018-05-27T23:30:00.223Z,49.10
2018-05-27T23:32:27.680Z,49.10
2018-05-27T23:34:55.128Z,49.00
2018-05-27T23:37:22.587Z,49.10
2018-05-27T23:39:50.047Z,49.10
2018-05-27T23:42:17.502Z,49.00
2018-05-27T23:44:44.972Z,48.90
2018-05-27T23:47:12.411Z,48.90
2018-05-27T23:49:39.872Z,48.90
2018-05-27T23:52:07.427Z,48.80
2018-05-27T23:54:34.875Z,48.80
2018-05-27T23:57:02.336Z,48.80
2018-05-27T23:59:29.800Z,48.70
